This is the latest recevied weather packets stored in our database for station/object OE2SWM. If no packets are shown the sender has not sent any weather packets the latest 10 day(s).
| Time | Temp. | Humidity | Pressure | Rain* | Wind** | Luminosity | Snow |
|---|---|---|---|---|---|---|---|
| 1788406200 | 12.78° C | 96% | 976 hPa | 0 mm | - | - | - |
| 1788405600 | 12.78° C | 97% | 975 hPa | 0 mm | - | - | - |
| 1788405000 | 11.67° C | 98% | 975 hPa | 0 mm | - | - | - |
| 1788404400 | 11.67° C | 98% | 975 hPa | 0 mm | - | - | - |
| 1788403800 | 11.67° C | 98% | 975 hPa | 0 mm | - | - | - |
| 1788403200 | 11.67° C | 98% | 975 hPa | 0 mm | - | - | - |
| 1788402600 | 12.78° C | 96% | 976 hPa | 0 mm | - | - | - |
| 1788402000 | 12.78° C | 97% | 976 hPa | 0 mm | - | - | - |
| 1788376800 | 15° C | 84% | 975 hPa | 0 mm | - | - | - |
| 1788376200 | 15° C | 84% | 975 hPa | 0 mm | - | - | - |
| 1788373800 | 15.56° C | 84% | 975 hPa | 0 mm | - | - | - |
| 1788373200 | 15.56° C | 80% | 975 hPa | 0 mm | - | - | - |
| 1788372600 | 15.56° C | 81% | 974 hPa | 0 mm | - | - | - |
| 1788370200 | 17.78° C | 76% | 974 hPa | 0 mm | - | - | - |
| 1788369600 | 17.78° C | 75% | 974 hPa | 0 mm | - | - | - |
| 1788369000 | 18.89° C | 74% | 974 hPa | 0 mm | - | - | - |
| 1788368400 | 18.89° C | 70% | 974 hPa | 0 mm | - | - | - |
| 1788366600 | 21.67° C | 63% | 974 hPa | 0 mm | - | - | - |
| 1788365400 | 22.78° C | 58% | 974 hPa | 0 mm | - | - | - |
| 1788363600 | 23.89° C | 54% | 974 hPa | 0 mm | - | - | - |
| 1788363000 | 23.89° C | 53% | 974 hPa | 0 mm | - | - | - |
| 1788362400 | 23.89° C | 53% | 974 hPa | 0 mm | - | - | - |
| 1788361200 | 25° C | 56% | 974 hPa | 0 mm | - | - | - |
| 1788359400 | 23.89° C | 56% | 974 hPa | 0 mm | - | - | - |
| 1788358800 | 25° C | 55% | 974 hPa | 0 mm | - | - | - |
* Rain latest hour (hover to see other rain measurements)
** Current wind speed in m/s (hover to see current wind gust speed)